Pagrindinis puslapis
METAR-TAF:

METAR-TAF

Oro uostai :

Figari, Prancūzija

platuma: 41-30N, ilguma: 009-06E, Aukštis: 26 m

Dabartinis oras

Ataskaita buvo paskelbta 36 minutes, ne 08:30 UTC
Vėjas 1 kt nuo kintamojo kryptimis
Temperatūra 5°C
Drėgmė 100%
Slėgis 1026 hPa
Matomumas 10 km arba daugiau
Išsisklaidę debesys ne aukštis 4300 ft

METAR: LFKF 190830Z AUTO VRB01KT 9999 SCT043 05/05 Q1026 NOSIG

Laikas: 10:06 (09:06 UTC)

Prognozė

Ataskaita buvo paskelbta 1 valandą ir 6 minutes, ne 08:00 UTC
Prognozė galioja nuo 19 metu 09 UTC su 20 metu 09 UTC
Vėjas 2 kt nuo kintamojo kryptimis
Matomumas 10 km arba daugiau
Mažai debesys ne aukštis 4000 ft
Tapsmas
nuo 19 metu 09 UTC su 19 metu 12 UTC
Vėjas 12 kt iš Vakarų
Tapsmas
nuo 19 metu 17 UTC su 19 metu 20 UTC
Vėjas 3 kt nuo kintamojo kryptimis
Laikinai
nuo 20 metu 01 UTC su 20 metu 08 UTC
Su prošvaistėmis ne aukštis 3000 ft

TAF: LFKF 190800Z 1909/2009 VRB02KT 9999 FEW040 BECMG 1909/1912 27012KT BECMG 1917/1920 VRB03KT TEMPO 2001/2008 BKN030

Orai ataskaitas ir orų prognozės (METAR, TAF).

turimą stotys yra geltonos ir raudonos taškus žemėlapyje.

Perkelti pele per norėdami pamatyti stoties vardą.

Tada spustelėkite, norėdami matyti oro stebėjimo ir prognozės.

Norėdami pakeisti žemėlapį: spustelėkite ant žalios mygtukų su juodo kryžiaus žemyn,; žalią mygtuką su brūkšneliu, jei norite nutolinti; arba žalių rodyklių gretimoms žemėlapius.


METAR-TAF: